createdAt,value
2017-05-18T00:00:20.395Z,6.20
2017-05-18T00:02:49.453Z,6.00
2017-05-18T00:05:17.774Z,5.78
2017-05-18T00:07:46.835Z,5.53
2017-05-18T00:10:15.145Z,5.48
2017-05-18T00:12:44.203Z,5.73
2017-05-18T00:15:12.521Z,5.68
2017-05-18T00:17:41.586Z,5.43
2017-05-18T00:20:09.905Z,5.00
2017-05-18T00:22:38.960Z,5.82
2017-05-18T00:25:07.279Z,7.80
2017-05-18T00:27:35.611Z,5.75
2017-05-18T00:30:03.923Z,6.07
2017-05-18T00:32:32.983Z,5.97
2017-05-18T00:35:01.883Z,5.13
2017-05-18T00:37:30.194Z,6.08
2017-05-18T00:39:59.251Z,5.80
2017-05-18T00:42:27.567Z,6.05
2017-05-18T00:44:56.618Z,5.93
2017-05-18T00:47:25.334Z,6.42
2017-05-18T00:49:53.657Z,5.82
2017-05-18T00:52:21.970Z,6.02
2017-05-18T00:54:50.291Z,5.87
2017-05-18T00:57:18.625Z,5.95
2017-05-18T00:59:46.943Z,6.18
2017-05-18T01:02:16.390Z,6.07
2017-05-18T01:04:44.857Z,6.17
2017-05-18T01:07:13.181Z,5.70
2017-05-18T01:09:41.506Z,6.20
2017-05-18T01:12:09.819Z,6.02
2017-05-18T01:14:38.237Z,6.22
2017-05-18T01:17:07.330Z,6.32
2017-05-18T01:19:36.105Z,7.78
2017-05-18T01:22:04.418Z,6.00
2017-05-18T01:24:32.735Z,5.87
2017-05-18T01:27:01.051Z,6.42
2017-05-18T01:29:30.754Z,6.15
2017-05-18T01:31:59.074Z,6.10
2017-05-18T01:34:27.386Z,6.37
2017-05-18T01:36:55.746Z,5.83
2017-05-18T01:39:24.053Z,6.20
2017-05-18T01:41:52.757Z,5.63
2017-05-18T01:44:21.071Z,6.12
2017-05-18T01:46:49.387Z,6.50
2017-05-18T01:49:17.727Z,5.53
2017-05-18T01:51:46.051Z,6.12
2017-05-18T01:54:14.757Z,6.30
2017-05-18T01:56:43.811Z,5.80
2017-05-18T01:59:16.157Z,6.37
2017-05-18T02:01:44.471Z,6.40
2017-05-18T02:04:12.782Z,5.92
2017-05-18T02:06:41.093Z,6.08
2017-05-18T02:09:09.414Z,5.90
2017-05-18T02:11:37.729Z,5.95
2017-05-18T02:14:06.785Z,6.05
2017-05-18T02:16:35.140Z,7.20
2017-05-18T02:19:03.454Z,7.48
2017-05-18T02:21:31.982Z,6.62
2017-05-18T02:24:00.294Z,6.40
2017-05-18T02:26:28.597Z,6.68
2017-05-18T02:28:56.907Z,6.30
2017-05-18T02:31:26.017Z,6.02
2017-05-18T02:33:54.367Z,6.33
2017-05-18T02:36:23.976Z,6.27
2017-05-18T02:38:53.029Z,6.22
2017-05-18T02:41:21.341Z,6.30
2017-05-18T02:43:50.394Z,6.47
2017-05-18T02:46:18.707Z,6.82
2017-05-18T02:48:47.020Z,6.32
2017-05-18T02:51:15.522Z,6.67
2017-05-18T02:53:43.832Z,6.70
2017-05-18T02:56:12.138Z,6.45
2017-05-18T02:58:41.189Z,6.85
2017-05-18T03:01:10.045Z,6.72
2017-05-18T03:03:38.349Z,6.88
2017-05-18T03:06:06.658Z,6.73
2017-05-18T03:08:34.972Z,6.68
2017-05-18T03:11:04.023Z,6.47
2017-05-18T03:13:32.333Z,8.17
2017-05-18T03:16:01.379Z,6.43
2017-05-18T03:18:29.695Z,6.03
2017-05-18T03:20:58.097Z,6.90
2017-05-18T03:23:28.909Z,6.50
2017-05-18T03:25:57.266Z,6.85
2017-05-18T03:28:25.578Z,6.52
2017-05-18T03:30:54.675Z,6.60
2017-05-18T03:33:23.731Z,6.62
2017-05-18T03:35:52.053Z,7.02
2017-05-18T03:38:21.103Z,7.33
2017-05-18T03:40:49.458Z,6.82
2017-05-18T03:43:17.770Z,6.98
2017-05-18T03:45:46.077Z,6.65
2017-05-18T03:48:15.130Z,7.17
2017-05-18T03:50:43.441Z,7.75
2017-05-18T03:53:11.802Z,7.10
2017-05-18T03:55:40.161Z,6.87
2017-05-18T03:58:08.574Z,6.85
2017-05-18T04:00:36.883Z,8.03
2017-05-18T04:03:05.597Z,7.43
2017-05-18T04:05:34.014Z,7.55
2017-05-18T04:08:02.380Z,8.23
2017-05-18T04:10:30.754Z,8.30
2017-05-18T04:12:59.081Z,7.80
2017-05-18T04:15:28.127Z,7.92
2017-05-18T04:17:56.437Z,7.68
2017-05-18T04:20:25.121Z,8.22
2017-05-18T04:22:53.436Z,9.05
2017-05-18T04:25:21.773Z,9.08
2017-05-18T04:27:50.093Z,9.33
2017-05-18T04:30:18.450Z,8.88
2017-05-18T04:32:47.308Z,8.65
2017-05-18T04:35:16.406Z,9.07
2017-05-18T04:37:44.742Z,8.60
2017-05-18T04:40:13.125Z,8.67
2017-05-18T04:42:42.581Z,7.83
2017-05-18T04:45:10.890Z,8.80
2017-05-18T04:47:39.278Z,8.58
2017-05-18T04:50:07.638Z,8.20
2017-05-18T04:52:35.951Z,8.12
2017-05-18T04:55:04.254Z,8.35
2017-05-18T04:57:32.606Z,8.98
2017-05-18T05:00:00.963Z,8.00
2017-05-18T05:02:29.278Z,7.43
2017-05-18T05:04:59.557Z,7.53
2017-05-18T05:07:29.162Z,8.68
2017-05-18T05:09:57.716Z,8.82
2017-05-18T05:12:26.046Z,8.45
2017-05-18T05:14:54.790Z,8.62
2017-05-18T05:17:23.098Z,9.00
2017-05-18T05:19:51.457Z,8.10
2017-05-18T05:22:20.522Z,8.93
2017-05-18T05:24:48.875Z,8.88
2017-05-18T05:27:17.237Z,9.00
2017-05-18T05:29:45.554Z,9.28
2017-05-18T05:32:13.866Z,9.28
2017-05-18T05:34:42.962Z,9.00
2017-05-18T05:37:12.035Z,9.12
2017-05-18T05:39:40.389Z,9.55
2017-05-18T05:42:08.943Z,9.65
2017-05-18T05:44:37.258Z,9.77
2017-05-18T05:47:05.568Z,8.53
2017-05-18T05:49:33.890Z,9.85
2017-05-18T05:52:02.248Z,9.80
2017-05-18T05:54:30.685Z,8.95
2017-05-18T05:56:59.037Z,9.55
2017-05-18T05:59:27.362Z,10.07
2017-05-18T06:01:55.681Z,10.23
2017-05-18T06:04:24.065Z,10.38
2017-05-18T06:06:52.525Z,11.18
2017-05-18T06:09:21.586Z,11.97
2017-05-18T06:11:49.907Z,10.35
2017-05-18T06:14:18.222Z,11.90
2017-05-18T06:16:46.534Z,10.60
2017-05-18T06:19:14.845Z,10.12
2017-05-18T06:21:43.411Z,11.45
2017-05-18T06:24:12.475Z,10.88
2017-05-18T06:26:40.793Z,11.92
2017-05-18T06:29:09.252Z,11.85
2017-05-18T06:31:37.538Z,14.17
2017-05-18T06:34:06.590Z,14.08
2017-05-18T06:36:35.104Z,14.17
2017-05-18T06:39:04.177Z,16.02
2017-05-18T06:41:32.489Z,15.32
2017-05-18T06:44:01.548Z,14.12
2017-05-18T06:46:29.867Z,14.05
2017-05-18T06:48:58.929Z,14.25
2017-05-18T06:51:32.847Z,12.45
2017-05-18T06:54:01.199Z,12.22
2017-05-18T06:56:29.520Z,13.05
2017-05-18T06:58:58.577Z,13.78
2017-05-18T07:01:26.890Z,12.95
2017-05-18T07:03:55.345Z,13.28
2017-05-18T07:06:23.717Z,11.18
2017-05-18T07:08:52.222Z,10.18
2017-05-18T07:11:20.554Z,12.38
2017-05-18T07:13:49.251Z,11.95
2017-05-18T07:16:17.569Z,12.22
2017-05-18T07:18:45.933Z,12.07
2017-05-18T07:21:14.289Z,13.15
2017-05-18T07:23:42.606Z,13.03
2017-05-18T07:26:10.994Z,12.55
2017-05-18T07:28:40.107Z,11.62
2017-05-18T07:31:08.487Z,11.70
2017-05-18T07:33:36.883Z,12.58
2017-05-18T07:36:05.254Z,12.60
2017-05-18T07:38:33.577Z,12.85
2017-05-18T07:41:01.900Z,12.70
2017-05-18T07:43:30.961Z,13.12
2017-05-18T07:45:59.478Z,12.47
2017-05-18T07:48:27.824Z,12.32
2017-05-18T07:50:56.135Z,13.37
2017-05-18T07:53:25.186Z,11.67
2017-05-18T07:55:53.499Z,12.43
2017-05-18T07:58:22.566Z,10.12
2017-05-18T08:00:51.157Z,10.55
2017-05-18T08:03:19.533Z,11.15
2017-05-18T08:05:49.203Z,9.77
2017-05-18T08:08:17.586Z,9.32
2017-05-18T08:10:46.454Z,10.23
2017-05-18T08:13:14.817Z,9.17
2017-05-18T08:15:43.156Z,10.15
2017-05-18T08:18:11.472Z,9.92
2017-05-18T08:20:40.576Z,9.92
2017-05-18T08:23:08.999Z,10.17
2017-05-18T08:25:37.326Z,10.27
2017-05-18T08:28:06.385Z,10.32
2017-05-18T08:30:34.742Z,9.58
2017-05-18T08:33:03.228Z,9.15
2017-05-18T08:35:31.553Z,9.10
2017-05-18T08:38:00.605Z,9.28
2017-05-18T08:40:28.946Z,9.70
2017-05-18T08:42:57.265Z,8.63
2017-05-18T08:45:25.582Z,10.18
2017-05-18T08:47:54.682Z,8.80
2017-05-18T08:50:25.521Z,10.17
2017-05-18T08:52:54.595Z,10.52
2017-05-18T08:55:22.914Z,8.72
2017-05-18T08:57:51.231Z,8.46
2017-05-18T09:00:19.597Z,9.06
2017-05-18T09:02:47.958Z,8.16
2017-05-18T09:05:19.578Z,8.22
2017-05-18T09:07:47.889Z,9.00
2017-05-18T09:10:16.202Z,8.40
2017-05-18T09:12:44.561Z,8.30
2017-05-18T09:15:12.884Z,8.32
2017-05-18T09:17:41.258Z,7.78
2017-05-18T09:20:09.578Z,6.46
2017-05-18T09:22:37.898Z,6.48
2017-05-18T09:25:06.214Z,6.96
2017-05-18T09:27:35.282Z,6.48
2017-05-18T09:30:03.599Z,7.58
2017-05-18T09:32:32.659Z,8.86
2017-05-18T09:35:00.995Z,8.02
2017-05-18T09:37:29.310Z,8.20
2017-05-18T09:39:57.629Z,8.18
2017-05-18T09:42:26.725Z,8.33
2017-05-18T09:44:55.787Z,8.82
2017-05-18T09:47:24.383Z,8.54
2017-05-18T09:49:52.702Z,8.68
2017-05-18T09:52:21.260Z,8.32
2017-05-18T09:54:50.364Z,9.10
2017-05-18T09:57:18.734Z,8.56
2017-05-18T09:59:48.709Z,8.50
2017-05-18T10:02:17.018Z,10.40
2017-05-18T10:04:45.371Z,9.06
2017-05-18T10:07:14.120Z,7.94
2017-05-18T10:09:42.522Z,8.10
2017-05-18T10:12:10.853Z,7.68
2017-05-18T10:14:39.909Z,7.52
2017-05-18T10:17:08.218Z,7.18
2017-05-18T10:19:36.538Z,7.12
2017-05-18T10:22:09.072Z,5.98
2017-05-18T10:24:37.382Z,4.76
2017-05-18T10:27:05.694Z,5.84
2017-05-18T10:29:34.003Z,5.24
2017-05-18T10:32:02.320Z,5.26
2017-05-18T10:34:30.630Z,5.28
2017-05-18T10:36:58.946Z,5.08
2017-05-18T10:39:28.001Z,4.38
2017-05-18T10:41:56.458Z,5.36
2017-05-18T10:44:24.767Z,4.38
2017-05-18T10:46:53.082Z,4.28
2017-05-18T10:49:22.138Z,5.80
2017-05-18T10:51:50.573Z,5.12
2017-05-18T10:54:19.228Z,4.90
2017-05-18T10:56:47.564Z,5.92
2017-05-18T10:59:15.883Z,4.60
2017-05-18T11:01:44.206Z,5.92
2017-05-18T11:04:12.555Z,5.64
2017-05-18T11:06:41.960Z,5.40
2017-05-18T11:09:11.015Z,5.12
2017-05-18T11:11:39.391Z,5.70
2017-05-18T11:14:07.717Z,5.72
2017-05-18T11:16:36.779Z,6.88
2017-05-18T11:19:05.101Z,17.00
2017-05-18T11:21:34.158Z,13.58
2017-05-18T11:24:02.497Z,11.28
2017-05-18T11:26:30.809Z,9.80
2017-05-18T11:28:59.126Z,9.98
2017-05-18T11:31:28.185Z,20.50
2017-05-18T11:33:56.836Z,23.06
2017-05-18T11:36:25.218Z,26.38
2017-05-18T11:38:53.543Z,29.92
2017-05-18T11:41:21.862Z,40.00
2017-05-18T11:43:50.226Z,28.96
2017-05-18T11:46:18.613Z,28.58
2017-05-18T11:48:46.941Z,30.86
2017-05-18T11:51:15.301Z,30.36
2017-05-18T11:53:43.681Z,28.38
2017-05-18T11:56:12.258Z,27.96
2017-05-18T11:58:40.685Z,29.12
2017-05-18T12:01:10.225Z,28.04
2017-05-18T12:03:38.609Z,30.60
2017-05-18T12:06:06.958Z,31.68
2017-05-18T12:08:36.245Z,36.08
2017-05-18T12:11:05.323Z,36.86
2017-05-18T12:13:35.241Z,38.52
2017-05-18T12:16:03.562Z,38.26
2017-05-18T12:18:31.897Z,39.08
2017-05-18T12:21:00.272Z,37.03
2017-05-18T12:23:28.597Z,40.60
2017-05-18T12:25:57.859Z,37.68
2017-05-18T12:28:26.191Z,36.00
2017-05-18T12:30:54.524Z,36.34
2017-05-18T12:33:23.042Z,34.25
2017-05-18T12:35:51.389Z,34.53
2017-05-18T12:38:20.102Z,31.14
2017-05-18T12:40:48.477Z,31.92
2017-05-18T12:43:16.810Z,25.60
2017-05-18T12:45:45.226Z,35.03
2017-05-18T12:48:14.347Z,29.08
2017-05-18T12:50:43.154Z,25.73
2017-05-18T12:53:11.534Z,19.67
2017-05-18T12:55:39.876Z,23.16
2017-05-18T12:58:09.048Z,21.65
2017-05-18T13:00:37.393Z,23.40
2017-05-18T13:03:05.710Z,15.38
2017-05-18T13:05:34.584Z,16.05
2017-05-18T13:08:04.353Z,14.23
2017-05-18T13:10:32.683Z,15.73
2017-05-18T13:13:03.298Z,11.32
2017-05-18T13:15:31.634Z,11.60
2017-05-18T13:18:00.010Z,9.75
2017-05-18T13:20:29.063Z,7.32
2017-05-18T13:22:57.470Z,6.67
2017-05-18T13:25:26.606Z,5.48
2017-05-18T13:27:54.922Z,5.38
2017-05-18T13:30:23.300Z,6.20
2017-05-18T13:32:58.075Z,5.84
2017-05-18T13:35:26.393Z,5.68
2017-05-18T13:37:54.818Z,7.92
2017-05-18T13:40:23.910Z,6.10
2017-05-18T13:42:52.962Z,5.78
2017-05-18T13:45:22.810Z,5.22
2017-05-18T13:47:51.913Z,5.13
2017-05-18T13:50:21.353Z,5.32
2017-05-18T13:52:49.727Z,5.28
2017-05-18T13:55:18.062Z,5.58
2017-05-18T13:57:47.630Z,5.23
2017-05-18T14:00:15.941Z,5.90
2017-05-18T14:02:44.278Z,5.37
2017-05-18T14:05:14.381Z,5.88
2017-05-18T14:07:42.703Z,5.58
2017-05-18T14:10:11.279Z,5.54
2017-05-18T14:12:39.702Z,5.32
2017-05-18T14:15:09.891Z,5.56
2017-05-18T14:17:38.214Z,4.62
2017-05-18T14:20:07.314Z,5.54
2017-05-18T14:22:35.778Z,5.54
2017-05-18T14:25:04.837Z,5.66
2017-05-18T14:27:33.217Z,7.05
2017-05-18T14:30:01.534Z,7.90
2017-05-18T14:32:31.182Z,7.12
2017-05-18T14:34:59.555Z,7.16
2017-05-18T14:37:27.881Z,7.82
2017-05-18T14:39:56.277Z,6.46
2017-05-18T14:42:24.638Z,5.98
2017-05-18T14:44:53.015Z,6.10
2017-05-18T14:47:21.387Z,6.50
2017-05-18T14:49:49.820Z,6.68
2017-05-18T14:52:18.682Z,7.28
2017-05-18T14:54:46.985Z,6.24
2017-05-18T14:57:16.039Z,6.48
2017-05-18T14:59:44.851Z,6.60
2017-05-18T15:02:13.919Z,6.82
2017-05-18T15:04:42.231Z,7.97
2017-05-18T15:07:11.516Z,7.36
2017-05-18T15:09:40.630Z,7.88
2017-05-18T15:12:10.570Z,7.78
2017-05-18T15:14:38.890Z,8.75
2017-05-18T15:17:07.273Z,8.57
2017-05-18T15:19:35.773Z,9.43
2017-05-18T15:22:04.935Z,9.73
2017-05-18T15:24:33.261Z,8.32
2017-05-18T15:27:02.378Z,8.40
2017-05-18T15:29:31.116Z,7.75
2017-05-18T15:31:59.455Z,7.52
2017-05-18T15:34:27.962Z,8.38
2017-05-18T15:36:56.294Z,8.23
2017-05-18T15:39:24.737Z,9.77
2017-05-18T15:41:53.282Z,7.88
2017-05-18T15:44:21.641Z,7.05
2017-05-18T15:46:50.414Z,8.37
2017-05-18T15:49:19.475Z,9.43
2017-05-18T15:51:47.802Z,9.75
2017-05-18T15:54:16.580Z,9.62
2017-05-18T15:56:44.909Z,9.27
2017-05-18T15:59:13.228Z,9.53
2017-05-18T16:01:42.554Z,9.00
2017-05-18T16:04:10.922Z,8.97
2017-05-18T16:06:39.604Z,8.95
2017-05-18T16:09:08.983Z,10.18
2017-05-18T16:11:37.319Z,10.20
2017-05-18T16:14:05.733Z,9.68
2017-05-18T16:16:34.105Z,9.30
2017-05-18T16:19:02.834Z,8.18
2017-05-18T16:21:31.893Z,8.10
2017-05-18T16:24:00.205Z,9.40
2017-05-18T16:26:29.299Z,9.26
2017-05-18T16:28:58.357Z,7.50
2017-05-18T16:31:26.847Z,7.38
2017-05-18T16:33:55.169Z,7.28
2017-05-18T16:36:23.493Z,7.00
2017-05-18T16:38:56.042Z,7.12
2017-05-18T16:41:24.414Z,6.36
2017-05-18T16:43:52.735Z,5.12
2017-05-18T16:46:21.106Z,6.13
2017-05-18T16:48:53.330Z,5.86
2017-05-18T16:51:21.637Z,5.30
2017-05-18T16:53:49.948Z,4.80
2017-05-18T16:56:18.461Z,5.32
2017-05-18T16:58:46.783Z,6.18
2017-05-18T17:01:15.488Z,6.72
2017-05-18T17:03:43.850Z,7.50
2017-05-18T17:06:12.177Z,7.55
2017-05-18T17:08:41.814Z,7.60
2017-05-18T17:11:10.405Z,7.24
2017-05-18T17:13:38.716Z,7.27
2017-05-18T17:16:07.422Z,7.35
2017-05-18T17:18:35.739Z,8.63
2017-05-18T17:21:04.106Z,10.00
2017-05-18T17:23:32.467Z,8.92
2017-05-18T17:26:01.864Z,8.27
2017-05-18T17:28:30.922Z,9.20
2017-05-18T17:30:59.239Z,8.30
2017-05-18T17:33:33.582Z,8.53
2017-05-18T17:36:01.894Z,8.62
2017-05-18T17:38:30.229Z,7.98
2017-05-18T17:40:59.797Z,7.97
2017-05-18T17:43:28.114Z,7.86
2017-05-18T17:45:59.749Z,8.26
2017-05-18T17:48:28.072Z,7.75
2017-05-18T17:50:56.433Z,8.20
2017-05-18T17:53:25.001Z,7.30
2017-05-18T17:55:54.064Z,6.55
2017-05-18T17:58:22.422Z,6.58
2017-05-18T18:00:50.746Z,6.62
2017-05-18T18:03:19.875Z,6.42
2017-05-18T18:05:48.186Z,7.12
2017-05-18T18:08:16.501Z,5.85
2017-05-18T18:10:46.001Z,6.13
2017-05-18T18:13:14.334Z,5.25
2017-05-18T18:15:43.103Z,5.60
2017-05-18T18:18:11.429Z,4.82
2017-05-18T18:20:39.762Z,5.90
2017-05-18T18:23:08.121Z,5.12
2017-05-18T18:25:37.178Z,5.58
2017-05-18T18:28:05.817Z,5.90
2017-05-18T18:30:34.142Z,5.43
2017-05-18T18:33:02.854Z,5.30
2017-05-18T18:35:31.173Z,5.38
2017-05-18T18:37:59.522Z,5.80
2017-05-18T18:40:28.627Z,4.85
2017-05-18T18:42:57.358Z,4.77
2017-05-18T18:45:25.726Z,5.00
2017-05-18T18:47:54.050Z,5.72
2017-05-18T18:50:22.616Z,5.45
2017-05-18T18:52:50.961Z,5.63
2017-05-18T18:55:19.469Z,4.72
2017-05-18T18:57:48.398Z,5.07
2017-05-18T19:00:17.553Z,4.75
2017-05-18T19:02:45.870Z,5.05
2017-05-18T19:05:15.369Z,5.60
2017-05-18T19:07:43.727Z,5.77
2017-05-18T19:10:14.142Z,5.57
2017-05-18T19:12:42.768Z,5.42
2017-05-18T19:15:11.868Z,5.80
2017-05-18T19:17:41.131Z,5.30
2017-05-18T19:20:09.451Z,4.90
2017-05-18T19:22:38.549Z,4.13
2017-05-18T19:25:08.447Z,4.97
2017-05-18T19:27:36.777Z,5.15
2017-05-18T19:30:05.087Z,4.80
2017-05-18T19:32:37.231Z,4.25
2017-05-18T19:35:05.738Z,6.55
2017-05-18T19:37:34.103Z,4.70
2017-05-18T19:40:02.429Z,4.38
2017-05-18T19:42:32.897Z,4.93
2017-05-18T19:45:01.302Z,4.78
2017-05-18T19:47:29.604Z,4.88
2017-05-18T19:49:58.288Z,5.23
2017-05-18T19:52:26.615Z,4.78
2017-05-18T19:54:54.979Z,5.75
2017-05-18T19:57:23.362Z,5.63
2017-05-18T19:59:54.737Z,5.58
2017-05-18T20:02:24.270Z,6.37
2017-05-18T20:04:52.580Z,5.50
2017-05-18T20:07:26.066Z,7.47
2017-05-18T20:09:56.833Z,5.90
2017-05-18T20:12:32.247Z,5.75
2017-05-18T20:15:02.407Z,6.18
2017-05-18T20:17:33.780Z,5.75
2017-05-18T20:20:07.441Z,6.15
2017-05-18T20:22:49.255Z,6.72
2017-05-18T20:27:59.639Z,5.92
2017-05-18T20:30:35.909Z,6.05
2017-05-18T20:33:04.270Z,6.60
2017-05-18T20:35:45.043Z,6.22
2017-05-18T20:38:16.982Z,8.80
2017-05-18T20:46:29.866Z,6.78
2017-05-18T20:48:58.174Z,6.53
2017-05-18T20:51:26.494Z,6.82
2017-05-18T20:53:55.614Z,6.53
2017-05-18T20:56:23.918Z,6.70
2017-05-18T20:58:52.227Z,5.88
2017-05-18T21:01:20.915Z,6.02
2017-05-18T21:03:50.211Z,6.33
2017-05-18T21:06:18.522Z,6.10
2017-05-18T21:08:47.294Z,6.52
2017-05-18T21:11:16.490Z,5.77
2017-05-18T21:13:45.541Z,5.40
2017-05-18T21:16:13.859Z,6.13
2017-05-18T21:18:43.138Z,5.75
2017-05-18T21:21:11.446Z,5.95
2017-05-18T21:23:40.505Z,5.02
2017-05-18T21:26:09.199Z,5.75
2017-05-18T21:28:37.506Z,6.00
2017-05-18T21:31:06.563Z,5.80
2017-05-18T21:33:34.993Z,6.20
2017-05-18T21:36:03.305Z,6.35
2017-05-18T21:38:31.609Z,6.12
2017-05-18T21:41:00.106Z,5.68
2017-05-18T21:43:28.413Z,5.30
2017-05-18T21:45:56.758Z,6.05
2017-05-18T21:48:25.067Z,5.35
2017-05-18T21:50:54.542Z,5.70
2017-05-18T21:53:22.848Z,5.57
2017-05-18T21:55:51.166Z,5.53
2017-05-18T21:58:19.890Z,5.75
2017-05-18T22:00:48.203Z,5.38
2017-05-18T22:03:16.618Z,6.20
2017-05-18T22:05:44.928Z,4.98
2017-05-18T22:08:24.879Z,5.13
2017-05-18T22:10:53.187Z,5.42
2017-05-18T22:13:21.496Z,5.30
2017-05-18T22:15:49.902Z,5.32
2017-05-18T22:18:18.249Z,4.87
2017-05-18T22:20:46.557Z,5.47
2017-05-18T22:23:14.863Z,5.22
2017-05-18T22:25:44.450Z,6.25
2017-05-18T22:28:12.758Z,5.82
2017-05-18T22:30:41.067Z,5.10
2017-05-18T22:33:09.999Z,5.00
2017-05-18T22:35:39.055Z,6.22
2017-05-18T22:38:07.365Z,5.82
2017-05-18T22:40:35.894Z,7.12
2017-05-18T22:43:04.203Z,5.42
2017-05-18T22:45:32.505Z,6.45
2017-05-18T22:48:00.858Z,5.62
2017-05-18T22:50:29.166Z,5.20
2017-05-18T22:52:58.158Z,7.05
2017-05-18T22:55:26.464Z,5.28
2017-05-18T22:57:55.511Z,5.90
2017-05-18T23:00:24.219Z,6.08
2017-05-18T23:02:52.518Z,6.20
2017-05-18T23:05:21.563Z,5.72
2017-05-18T23:07:50.279Z,5.92
2017-05-18T23:10:19.242Z,6.77
2017-05-18T23:12:47.746Z,6.40
2017-05-18T23:15:16.046Z,6.02
2017-05-18T23:17:45.550Z,6.38
2017-05-18T23:20:14.603Z,6.35
2017-05-18T23:22:42.908Z,7.17
2017-05-18T23:25:11.550Z,6.87
2017-05-18T23:27:39.859Z,6.95
2017-05-18T23:30:08.315Z,6.17
2017-05-18T23:32:36.616Z,6.88
2017-05-18T23:35:04.924Z,6.47
2017-05-18T23:37:34.014Z,6.88
2017-05-18T23:40:02.321Z,6.63
2017-05-18T23:42:31.278Z,6.77
2017-05-18T23:44:59.589Z,6.92
2017-05-18T23:47:27.901Z,7.37
2017-05-18T23:49:56.621Z,7.18
2017-05-18T23:52:24.929Z,6.93
2017-05-18T23:54:53.973Z,7.95
2017-05-18T23:57:27.706Z,8.35
2017-05-18T23:59:56.014Z,7.77
